createdAt,value
2023-06-06T00:00:18.490Z,5.800000191
2023-06-06T00:01:19.582Z,5.300000191
2023-06-06T00:02:20.588Z,5.699999809
2023-06-06T00:03:22.743Z,5.199999809
2023-06-06T00:04:23.325Z,5.099999905
2023-06-06T00:05:24.389Z,5.400000095
2023-06-06T00:06:26.405Z,5.5
2023-06-06T00:07:27.329Z,5.099999905
2023-06-06T00:08:28.766Z,5.300000191
2023-06-06T00:09:29.803Z,5.099999905
2023-06-06T00:10:31.001Z,5.900000095
2023-06-06T00:11:31.970Z,5.300000191
2023-06-06T00:12:32.885Z,5.800000191
2023-06-06T00:13:33.860Z,5.099999905
2023-06-06T00:14:35.768Z,4.800000191
2023-06-06T00:15:36.784Z,5.099999905
2023-06-06T00:16:38.169Z,5.300000191
2023-06-06T00:18:10.398Z,5.699999809
2023-06-06T00:19:12.505Z,4.900000095
2023-06-06T00:20:13.878Z,5.699999809
2023-06-06T00:21:14.912Z,5.099999905
2023-06-06T00:22:16.701Z,5.400000095
2023-06-06T00:23:17.696Z,5.099999905
2023-06-06T00:24:19.330Z,5.599999905
2023-06-06T00:25:20.505Z,5.300000191
2023-06-06T00:26:21.582Z,5.699999809
2023-06-06T00:27:22.449Z,6
2023-06-06T00:28:23.362Z,5.900000095
2023-06-06T00:29:25.326Z,6.199999809
2023-06-06T00:30:26.394Z,5.300000191
2023-06-06T00:31:27.500Z,5.5
2023-06-06T00:32:28.360Z,5.199999809
2023-06-06T00:33:29.203Z,5.900000095
2023-06-06T00:34:30.398Z,5.199999809
2023-06-06T00:35:32.263Z,5.099999905
2023-06-06T00:36:33.286Z,5.699999809
2023-06-06T00:37:34.080Z,5.400000095
2023-06-06T00:38:35.728Z,6.099999905
2023-06-06T00:39:36.808Z,5.400000095
2023-06-06T00:40:38.178Z,5.800000191
2023-06-06T00:42:10.293Z,5.699999809
2023-06-06T00:43:11.203Z,5.400000095
2023-06-06T00:44:12.118Z,5.400000095
2023-06-06T00:45:13.045Z,5.5
2023-06-06T00:46:15.391Z,6.099999905
2023-06-06T00:47:16.290Z,5.800000191
2023-06-06T00:48:18.275Z,5.400000095
2023-06-06T00:49:19.744Z,5.699999809
2023-06-06T00:50:21.264Z,5.099999905
2023-06-06T00:51:22.212Z,5.400000095
2023-06-06T00:52:23.278Z,5
2023-06-06T00:53:24.240Z,5.5
2023-06-06T00:54:25.129Z,5.400000095
2023-06-06T00:55:26.674Z,5.300000191
2023-06-06T00:56:27.508Z,4.900000095
2023-06-06T00:57:28.524Z,5.5
2023-06-06T00:58:29.570Z,6.099999905
2023-06-06T00:59:31.341Z,5.800000191
2023-06-06T01:00:32.199Z,5.099999905
2023-06-06T01:01:33.203Z,5.699999809
2023-06-06T01:02:34.125Z,6.699999809
2023-06-06T01:03:35.924Z,5.300000191
2023-06-06T01:04:36.913Z,5.400000095
2023-06-06T01:06:08.790Z,5.5
2023-06-06T01:07:09.595Z,5.800000191
2023-06-06T01:08:10.483Z,5.400000095
2023-06-06T01:09:12.277Z,5.400000095
2023-06-06T01:10:13.599Z,5.400000095
2023-06-06T01:11:14.441Z,5.699999809
2023-06-06T01:12:15.348Z,5.900000095
2023-06-06T01:13:17.302Z,5.5
2023-06-06T01:14:18.241Z,5.699999809
2023-06-06T01:15:19.798Z,5.800000191
2023-06-06T01:16:20.889Z,5.199999809
2023-06-06T01:17:21.868Z,5.699999809
2023-06-06T01:18:23.659Z,5.5
2023-06-06T01:19:25.336Z,5.5
2023-06-06T01:20:26.379Z,5.199999809
2023-06-06T01:21:27.384Z,6
2023-06-06T01:22:29.320Z,5.800000191
2023-06-06T01:23:30.369Z,5.400000095
2023-06-06T01:24:31.124Z,5.199999809
2023-06-06T01:25:32.042Z,5.300000191
2023-06-06T01:26:33.812Z,5.5
2023-06-06T01:27:34.838Z,5.400000095
2023-06-06T01:28:35.821Z,5.800000191
2023-06-06T01:29:37.719Z,5.599999905
2023-06-06T01:31:09.431Z,5.400000095
2023-06-06T01:32:10.213Z,5.800000191
2023-06-06T01:33:11.818Z,5.5
2023-06-06T01:34:12.800Z,5.599999905
2023-06-06T01:35:13.814Z,5.599999905
2023-06-06T01:36:14.760Z,5.400000095
2023-06-06T01:37:15.757Z,5.300000191
2023-06-06T01:38:16.724Z,5.599999905
2023-06-06T01:39:18.290Z,5.400000095
2023-06-06T01:40:19.185Z,5.599999905
2023-06-06T01:41:20.017Z,5.5
2023-06-06T01:42:20.849Z,5.800000191
2023-06-06T01:43:21.658Z,5.400000095
2023-06-06T01:44:23.312Z,6
2023-06-06T01:45:24.158Z,5.400000095
2023-06-06T01:46:24.985Z,5.800000191
2023-06-06T01:47:26.869Z,5.5
2023-06-06T01:48:28.923Z,5.400000095
2023-06-06T01:49:30.895Z,5.800000191
2023-06-06T01:50:31.825Z,5
2023-06-06T01:51:32.766Z,5.400000095
2023-06-06T01:52:33.808Z,5.699999809
2023-06-06T01:53:34.767Z,5.300000191
2023-06-06T01:54:36.397Z,5.5
2023-06-06T01:55:37.647Z,5.400000095
2023-06-06T01:57:09.833Z,5.900000095
2023-06-06T01:58:10.930Z,5.699999809
2023-06-06T01:59:12.776Z,5.5
2023-06-06T02:00:13.872Z,5.800000191
2023-06-06T02:01:15.325Z,5.300000191
2023-06-06T02:02:16.532Z,5.400000095
2023-06-06T02:03:17.603Z,5
2023-06-06T02:04:18.340Z,5.599999905
2023-06-06T02:05:19.354Z,5.099999905
2023-06-06T02:06:21.392Z,5.199999809
2023-06-06T02:07:22.577Z,5.400000095
2023-06-06T02:08:23.550Z,5.699999809
2023-06-06T02:09:25.330Z,5.199999809
2023-06-06T02:10:26.357Z,5.800000191
2023-06-06T02:11:27.387Z,5.900000095
2023-06-06T02:12:29.308Z,5.800000191
2023-06-06T02:13:30.333Z,5.400000095
2023-06-06T02:14:31.147Z,6.599999905
2023-06-06T02:15:32.105Z,5.300000191
2023-06-06T02:16:33.890Z,5.599999905
2023-06-06T02:17:34.814Z,5.300000191
2023-06-06T02:18:36.338Z,5.400000095
2023-06-06T02:20:08.785Z,5.400000095
2023-06-06T02:21:09.989Z,6.099999905
2023-06-06T02:22:11.351Z,5.5
2023-06-06T02:23:12.442Z,5.599999905
2023-06-06T02:24:13.680Z,5.5
2023-06-06T02:25:14.646Z,5.900000095
2023-06-06T02:26:16.398Z,5.199999809
2023-06-06T02:27:17.454Z,5.599999905
2023-06-06T02:28:18.430Z,5.599999905
2023-06-06T02:29:19.406Z,5.599999905
2023-06-06T02:30:21.341Z,5.900000095
2023-06-06T02:31:22.517Z,5.599999905
2023-06-06T02:32:23.288Z,6.199999809
2023-06-06T02:33:24.852Z,6
2023-06-06T02:34:25.873Z,5.800000191
2023-06-06T02:35:26.841Z,6.400000095
2023-06-06T02:36:28.812Z,5.400000095
2023-06-06T02:37:29.688Z,5.400000095
2023-06-06T02:38:30.611Z,5.099999905
2023-06-06T02:39:32.380Z,5.599999905
2023-06-06T02:40:33.423Z,5.199999809
2023-06-06T02:41:34.420Z,6.099999905
2023-06-06T02:42:35.273Z,5.699999809
2023-06-06T02:43:36.158Z,5.599999905
2023-06-06T02:45:08.216Z,5.400000095
2023-06-06T02:46:09.142Z,5.400000095
2023-06-06T02:47:10.692Z,5.5
2023-06-06T02:48:11.602Z,6.099999905
2023-06-06T02:49:13.540Z,5.400000095
2023-06-06T02:50:15.271Z,4.699999809
2023-06-06T02:51:16.193Z,5.699999809
2023-06-06T02:52:17.050Z,5.800000191
2023-06-06T02:53:17.927Z,6.099999905
2023-06-06T02:54:18.829Z,6.699999809
2023-06-06T02:55:19.794Z,5.199999809
2023-06-06T02:56:21.267Z,5.599999905
2023-06-06T02:57:22.114Z,6.099999905
2023-06-06T02:58:22.963Z,5.5
2023-06-06T02:59:23.798Z,5.699999809
2023-06-06T03:00:25.153Z,5.400000095
2023-06-06T03:01:26.079Z,5.5
2023-06-06T03:02:27.059Z,5.800000191
2023-06-06T03:03:28.733Z,6
2023-06-06T03:04:29.610Z,5.5
2023-06-06T03:05:30.505Z,6.199999809
2023-06-06T03:06:32.303Z,5.400000095
2023-06-06T03:07:33.194Z,5.699999809
2023-06-06T03:08:34.038Z,6
2023-06-06T03:09:35.292Z,5.900000095
2023-06-06T03:11:07.274Z,5.900000095
2023-06-06T03:12:08.110Z,5.300000191
2023-06-06T03:13:09.032Z,5.699999809
2023-06-06T03:14:09.997Z,5.599999905
2023-06-06T03:15:11.783Z,5.300000191
2023-06-06T03:16:12.685Z,5.599999905
2023-06-06T03:17:13.676Z,5.400000095
2023-06-06T03:18:15.283Z,5.199999809
2023-06-06T03:19:16.783Z,6.099999905
2023-06-06T03:20:18.329Z,5.400000095
2023-06-06T03:21:19.257Z,5.5
2023-06-06T03:22:20.769Z,6
2023-06-06T03:23:21.791Z,5.800000191
2023-06-06T03:24:22.539Z,5.800000191
2023-06-06T03:25:23.578Z,6.099999905
2023-06-06T03:26:25.375Z,5
2023-06-06T03:27:26.236Z,5.599999905
2023-06-06T03:28:27.232Z,6.099999905
2023-06-06T03:29:28.193Z,5.300000191
2023-06-06T03:30:29.847Z,5.099999905
2023-06-06T03:31:30.984Z,5.599999905
2023-06-06T03:32:31.889Z,5.599999905
2023-06-06T03:33:33.404Z,5.800000191
2023-06-06T03:34:34.349Z,6.099999905
2023-06-06T03:35:35.305Z,5.400000095
2023-06-06T03:37:07.341Z,6.099999905
2023-06-06T03:38:08.367Z,5.900000095
2023-06-06T03:39:09.278Z,6
2023-06-06T03:40:10.821Z,5.900000095
2023-06-06T03:41:12.022Z,5.199999809
2023-06-06T03:42:12.705Z,5.300000191
2023-06-06T03:43:13.836Z,6.099999905
2023-06-06T03:44:14.882Z,5.5
2023-06-06T03:45:16.843Z,5.699999809
2023-06-06T03:46:17.935Z,6.400000095
2023-06-06T03:47:18.839Z,5.400000095
2023-06-06T03:48:20.337Z,6
2023-06-06T03:49:21.285Z,5.800000191
2023-06-06T03:50:22.982Z,6.5
2023-06-06T03:51:24.782Z,5.599999905
2023-06-06T03:52:25.710Z,5.800000191
2023-06-06T03:53:26.642Z,5.699999809
2023-06-06T03:54:27.598Z,5.800000191
2023-06-06T03:55:28.590Z,5.5
2023-06-06T03:56:30.514Z,6.199999809
2023-06-06T03:57:31.423Z,5.800000191
2023-06-06T03:58:32.338Z,5.300000191
2023-06-06T03:59:33.259Z,5.699999809
2023-06-06T04:00:34.849Z,5.900000095
2023-06-06T04:01:36.159Z,5.599999905
2023-06-06T04:03:08.717Z,5.699999809
2023-06-06T04:04:09.429Z,5.699999809
2023-06-06T04:05:10.187Z,5.199999809
2023-06-06T04:06:11.398Z,5.5
2023-06-06T04:07:13.602Z,5.300000191
2023-06-06T04:08:14.525Z,5.800000191
2023-06-06T04:09:15.415Z,5.599999905
2023-06-06T04:10:17.351Z,5.099999905
2023-06-06T04:11:18.349Z,5.599999905
2023-06-06T04:12:19.286Z,6
2023-06-06T04:13:20.287Z,5.599999905
2023-06-06T04:14:23.211Z,5.5
2023-06-06T04:15:23.360Z,5.699999809
2023-06-06T04:16:24.455Z,5.5
2023-06-06T04:17:25.232Z,5.699999809
2023-06-06T04:18:26.803Z,5.699999809
2023-06-06T04:19:27.694Z,5.699999809
2023-06-06T04:20:29.341Z,6.099999905
2023-06-06T04:21:30.353Z,5.400000095
2023-06-06T04:22:31.739Z,4.900000095
2023-06-06T04:23:32.673Z,5.699999809
2023-06-06T04:24:33.547Z,5.5
2023-06-06T04:25:34.480Z,5.300000191
2023-06-06T04:26:35.835Z,5.300000191
2023-06-06T04:28:07.326Z,5.699999809
2023-06-06T04:29:08.359Z,6.099999905
2023-06-06T04:30:09.826Z,5.5
2023-06-06T04:31:11.568Z,5.400000095
2023-06-06T04:32:12.222Z,5.5
2023-06-06T04:33:13.877Z,5
2023-06-06T04:34:14.809Z,5.400000095
2023-06-06T04:35:15.910Z,6.199999809
2023-06-06T04:36:16.904Z,5.900000095
2023-06-06T04:37:17.868Z,5.300000191
2023-06-06T04:38:18.806Z,5.699999809
2023-06-06T04:39:19.725Z,5.400000095
2023-06-06T04:40:21.377Z,5.699999809
2023-06-06T04:41:52.136Z,6.199999809
2023-06-06T04:42:23.886Z,5.199999809
2023-06-06T04:43:25.163Z,5.599999905
2023-06-06T04:44:25.831Z,6
2023-06-06T04:45:26.774Z,5.199999809
2023-06-06T04:46:28.288Z,5.699999809
2023-06-06T04:47:29.144Z,6
2023-06-06T04:48:30.256Z,5.599999905
2023-06-06T04:49:31.800Z,5.099999905
2023-06-06T04:50:33.322Z,5.5
2023-06-06T04:51:34.312Z,6.199999809
2023-06-06T04:52:35.603Z,5
2023-06-06T04:54:06.974Z,5.300000191
2023-06-06T04:55:07.842Z,5.5
2023-06-06T04:56:08.900Z,5
2023-06-06T04:57:10.788Z,6.199999809
2023-06-06T04:58:11.689Z,5.599999905
2023-06-06T04:59:13.698Z,5.5
2023-06-06T05:00:14.601Z,5.800000191
2023-06-06T05:01:16.309Z,6.199999809
2023-06-06T05:02:17.248Z,5.699999809
2023-06-06T05:03:18.872Z,5.5
2023-06-06T05:04:20.254Z,5.900000095
2023-06-06T05:05:21.124Z,5.5
2023-06-06T05:06:22.828Z,6.300000191
2023-06-06T05:07:23.725Z,5.900000095
2023-06-06T05:08:24.696Z,5.5
2023-06-06T05:09:25.606Z,5.699999809
2023-06-06T05:10:26.534Z,5.800000191
2023-06-06T05:11:28.285Z,6
2023-06-06T05:12:29.218Z,5.699999809
2023-06-06T05:13:30.164Z,5.900000095
2023-06-06T05:14:31.019Z,5.900000095
2023-06-06T05:15:31.910Z,6.300000191
2023-06-06T05:16:33.803Z,5.699999809
2023-06-06T05:17:34.625Z,6.099999905
2023-06-06T05:19:05.974Z,6
2023-06-06T05:20:07.766Z,6.300000191
2023-06-06T05:21:09.616Z,6.300000191
2023-06-06T05:22:10.245Z,6
2023-06-06T05:23:11.104Z,6
2023-06-06T05:24:12.039Z,6
2023-06-06T05:25:12.882Z,6
2023-06-06T05:26:13.704Z,6
2023-06-06T05:27:15.471Z,5.699999809
2023-06-06T05:28:16.503Z,6
2023-06-06T05:29:17.436Z,6.099999905
2023-06-06T05:30:18.360Z,6.099999905
2023-06-06T05:31:19.824Z,6
2023-06-06T05:32:20.789Z,6.300000191
2023-06-06T05:33:22.439Z,6.400000095
2023-06-06T05:34:23.464Z,6
2023-06-06T05:35:24.357Z,5.599999905
2023-06-06T05:36:25.817Z,6.099999905
2023-06-06T05:37:26.717Z,6
2023-06-06T05:38:27.777Z,5.599999905
2023-06-06T05:39:28.787Z,6.300000191
2023-06-06T05:40:29.724Z,6.099999905
2023-06-06T05:41:31.290Z,5.800000191
2023-06-06T05:42:32.235Z,6.199999809
2023-06-06T05:43:33.422Z,5.800000191
2023-06-06T05:44:34.446Z,5.400000095
2023-06-06T05:46:06.033Z,5.900000095
2023-06-06T05:47:06.868Z,5.599999905
2023-06-06T05:48:07.921Z,6.199999809
2023-06-06T05:49:09.401Z,5.400000095
2023-06-06T05:50:10.399Z,4.699999809
2023-06-06T05:51:12.419Z,5.800000191
2023-06-06T05:52:13.792Z,5.400000095
2023-06-06T05:53:14.650Z,5.5
2023-06-06T05:54:17.219Z,5.900000095
2023-06-06T05:55:16.620Z,5.800000191
2023-06-06T05:56:18.443Z,5.199999809
2023-06-06T05:57:19.446Z,5.699999809
2023-06-06T05:58:20.313Z,5.599999905
2023-06-06T05:59:21.247Z,4.699999809
2023-06-06T06:00:22.686Z,6
2023-06-06T06:01:24.504Z,5.5
2023-06-06T06:02:26.730Z,6.300000191
2023-06-06T06:03:27.855Z,5.099999905
2023-06-06T06:04:28.971Z,5.300000191
2023-06-06T06:05:30.915Z,5.300000191
2023-06-06T06:06:32.866Z,4.699999809
2023-06-06T06:07:33.848Z,4.900000095
2023-06-06T06:09:05.612Z,4.900000095
2023-06-06T06:10:06.794Z,5.400000095
2023-06-06T06:11:08.492Z,6
2023-06-06T06:12:09.338Z,5.300000191
2023-06-06T06:13:10.360Z,5.599999905
2023-06-06T06:14:11.365Z,5.5
2023-06-06T06:15:12.771Z,5.5
2023-06-06T06:16:14.371Z,5.400000095
2023-06-06T06:17:15.303Z,5.199999809
2023-06-06T06:18:16.399Z,5.5
2023-06-06T06:19:17.435Z,5.300000191
2023-06-06T06:20:19.405Z,5.199999809
2023-06-06T06:21:20.875Z,5.300000191
2023-06-06T06:22:21.730Z,5.400000095
2023-06-06T06:23:22.791Z,5.5
2023-06-06T06:24:23.779Z,5.699999809
2023-06-06T06:25:24.768Z,5.400000095
2023-06-06T06:26:26.363Z,5
2023-06-06T06:27:27.369Z,6.300000191
2023-06-06T06:28:28.416Z,6.300000191
2023-06-06T06:29:29.578Z,5.5
2023-06-06T06:30:30.660Z,5.300000191
2023-06-06T06:31:32.382Z,5.199999809
2023-06-06T06:32:34.322Z,5.900000095
2023-06-06T06:34:05.680Z,5.300000191
2023-06-06T06:35:06.667Z,5.699999809
2023-06-06T06:36:08.403Z,5.599999905
2023-06-06T06:37:09.345Z,4.900000095
2023-06-06T06:38:10.235Z,4.900000095
2023-06-06T06:39:11.209Z,5.400000095
2023-06-06T06:40:12.200Z,5.300000191
2023-06-06T06:41:13.973Z,5.300000191
2023-06-06T06:42:14.956Z,5.699999809
2023-06-06T06:43:15.923Z,5.599999905
2023-06-06T06:44:17.594Z,5.699999809
2023-06-06T06:45:18.502Z,5
2023-06-06T06:46:20.431Z,5.5
2023-06-06T06:47:21.392Z,6.599999905
2023-06-06T06:48:22.431Z,5.599999905
2023-06-06T06:49:23.442Z,5.300000191
2023-06-06T06:50:25.332Z,5.699999809
2023-06-06T06:51:26.920Z,5.699999809
2023-06-06T06:52:27.937Z,5.699999809
2023-06-06T06:53:28.959Z,5.300000191
2023-06-06T06:54:29.976Z,5.400000095
2023-06-06T06:55:30.905Z,5.5
2023-06-06T06:56:31.957Z,5.400000095
2023-06-06T06:57:33.591Z,5.699999809
2023-06-06T06:59:05.258Z,5.400000095
2023-06-06T07:00:06.330Z,5.099999905
2023-06-06T07:01:07.246Z,5.199999809
2023-06-06T07:02:08.818Z,5.099999905
2023-06-06T07:03:10.265Z,5.199999809
2023-06-06T07:04:11.103Z,5.300000191
2023-06-06T07:05:12.090Z,4.5
2023-06-06T07:06:13.596Z,6
2023-06-06T07:07:14.431Z,5.900000095
2023-06-06T07:08:15.291Z,5.400000095
2023-06-06T07:09:16.805Z,6.099999905
2023-06-06T07:10:18.416Z,5.300000191
2023-06-06T07:11:19.775Z,5.099999905
2023-06-06T07:12:21.428Z,4.800000191
2023-06-06T07:13:22.192Z,5.699999809
2023-06-06T07:14:23.132Z,5
2023-06-06T07:15:24.038Z,5.699999809
2023-06-06T07:16:25.936Z,5
2023-06-06T07:17:26.654Z,5.599999905
2023-06-06T07:18:27.551Z,5.400000095
2023-06-06T07:19:28.443Z,4.599999905
2023-06-06T07:20:30.364Z,4.300000191
2023-06-06T07:21:31.836Z,5
2023-06-06T07:22:32.827Z,5.5
2023-06-06T07:24:04.364Z,5.5
2023-06-06T07:25:05.204Z,5.199999809
2023-06-06T07:26:06.047Z,5.5
2023-06-06T07:27:06.993Z,5.400000095
2023-06-06T07:28:07.742Z,5.099999905
2023-06-06T07:29:08.553Z,5.800000191
2023-06-06T07:30:09.830Z,4.800000191
2023-06-06T07:31:12.146Z,5.400000095
2023-06-06T07:32:13.615Z,5.699999809
2023-06-06T07:33:14.554Z,5.900000095
2023-06-06T07:34:15.267Z,5.400000095
2023-06-06T07:35:16.842Z,5.099999905
2023-06-06T07:36:17.730Z,5.099999905
2023-06-06T07:37:19.387Z,5.5
2023-06-06T07:38:20.265Z,6.099999905
2023-06-06T07:39:21.103Z,5.300000191
2023-06-06T07:40:21.865Z,5.800000191
2023-06-06T07:41:22.627Z,5.400000095
2023-06-06T07:42:24.334Z,5.900000095
2023-06-06T07:43:25.161Z,5.300000191
2023-06-06T07:44:26.033Z,5.400000095
2023-06-06T07:45:26.758Z,5.699999809
2023-06-06T07:46:28.363Z,6.099999905
2023-06-06T07:47:29.231Z,5.599999905
2023-06-06T07:48:30.880Z,5.900000095
2023-06-06T07:49:31.679Z,6.099999905
2023-06-06T07:50:32.465Z,6.199999809
2023-06-06T07:52:04.699Z,5.900000095
2023-06-06T07:53:06.324Z,6.5
2023-06-06T07:54:07.198Z,6.599999905
2023-06-06T07:55:08.038Z,6
2023-06-06T07:56:09.803Z,6.199999809
2023-06-06T07:57:11.358Z,6.400000095
2023-06-06T07:58:12.446Z,6.300000191
2023-06-06T07:59:13.741Z,6.400000095
2023-06-06T08:00:14.822Z,6.599999905
2023-06-06T08:01:15.808Z,6.400000095
2023-06-06T08:02:17.523Z,5.900000095
2023-06-06T08:03:18.965Z,6.599999905
2023-06-06T08:04:20.086Z,6.300000191
2023-06-06T08:05:21.175Z,7.800000191
2023-06-06T08:06:22.835Z,6.5
2023-06-06T08:07:23.789Z,6.5
2023-06-06T08:08:25.374Z,6.199999809
2023-06-06T08:09:26.413Z,6.300000191
2023-06-06T08:10:27.504Z,6.099999905
2023-06-06T08:11:29.361Z,6.5
2023-06-06T08:12:30.858Z,6.400000095
2023-06-06T08:13:31.692Z,6
2023-06-06T08:14:34.557Z,6.400000095
2023-06-06T08:16:04.754Z,6.599999905
2023-06-06T08:17:06.536Z,5.900000095
2023-06-06T08:18:07.446Z,6
2023-06-06T08:19:08.979Z,6.400000095
2023-06-06T08:20:10.152Z,6.099999905
2023-06-06T08:21:12.077Z,7
2023-06-06T08:22:13.897Z,6.599999905
2023-06-06T08:23:15.118Z,6.300000191
2023-06-06T08:24:16.156Z,6.599999905
2023-06-06T08:25:17.712Z,6.5
2023-06-06T08:26:19.421Z,6
2023-06-06T08:27:20.466Z,6.199999809
2023-06-06T08:28:21.415Z,6.599999905
2023-06-06T08:29:22.534Z,6.300000191
2023-06-06T08:30:23.686Z,6.5
2023-06-06T08:31:25.439Z,7
2023-06-06T08:32:27.427Z,6.199999809
2023-06-06T08:33:28.286Z,6.5
2023-06-06T08:34:29.204Z,6.5
2023-06-06T08:35:30.371Z,6.5
2023-06-06T08:36:32.527Z,5.900000095
2023-06-06T08:38:04.070Z,6.599999905
2023-06-06T08:39:04.966Z,6.800000191
2023-06-06T08:40:05.950Z,7.5
2023-06-06T08:41:07.027Z,6.5
2023-06-06T08:42:08.900Z,6.699999809
2023-06-06T08:43:09.921Z,7.300000191
2023-06-06T08:44:10.769Z,7.199999809
2023-06-06T08:45:11.733Z,6.900000095
2023-06-06T08:46:12.954Z,7.5
2023-06-06T08:47:14.408Z,7.800000191
2023-06-06T08:48:15.424Z,6.300000191
2023-06-06T08:49:16.890Z,7.900000095
2023-06-06T08:50:18.027Z,7.300000191
2023-06-06T08:51:20.012Z,7.099999905
2023-06-06T08:52:21.893Z,7.099999905
2023-06-06T08:53:22.936Z,7.300000191
2023-06-06T08:54:23.839Z,7.300000191
2023-06-06T08:55:24.755Z,7.300000191
2023-06-06T08:56:25.770Z,7.300000191
2023-06-06T08:57:26.744Z,6.400000095
2023-06-06T08:58:27.742Z,6.5
2023-06-06T08:59:28.806Z,7.099999905
2023-06-06T09:00:29.708Z,7.099999905
2023-06-06T09:01:30.833Z,7.099999905
2023-06-06T09:02:32.401Z,7.599999905
2023-06-06T09:04:04.171Z,8
2023-06-06T09:05:05.835Z,7.599999905
2023-06-06T09:06:07.613Z,7.199999809
2023-06-06T09:07:09.470Z,7.300000191
2023-06-06T09:08:10.884Z,7.300000191
2023-06-06T09:09:11.928Z,6.099999905
2023-06-06T09:10:12.977Z,6.400000095
2023-06-06T09:11:14.186Z,7
2023-06-06T09:12:15.113Z,6.5
2023-06-06T09:13:17.002Z,6.699999809
2023-06-06T09:14:18.035Z,6.199999809
2023-06-06T09:15:19.177Z,6
2023-06-06T09:16:22.789Z,6.199999809
2023-06-06T09:17:21.800Z,6.199999809
2023-06-06T09:18:22.770Z,6
2023-06-06T09:19:23.822Z,6.199999809
2023-06-06T09:20:24.858Z,7.5
2023-06-06T09:21:26.300Z,7.199999809
2023-06-06T09:22:27.834Z,7.199999809
2023-06-06T09:23:28.867Z,6.900000095
2023-06-06T09:24:30.023Z,7.199999809
2023-06-06T09:25:31.004Z,7.599999905
2023-06-06T09:26:32.515Z,5.699999809
2023-06-06T09:28:03.935Z,6.5
2023-06-06T09:29:04.816Z,5.900000095
2023-06-06T09:30:05.964Z,6.699999809
2023-06-06T09:31:07.098Z,6.300000191
2023-06-06T09:32:08.036Z,7
2023-06-06T09:33:10.082Z,6.699999809
2023-06-06T09:34:11.287Z,6.900000095
2023-06-06T09:35:12.209Z,6.800000191
2023-06-06T09:36:15.986Z,6.599999905
2023-06-06T09:37:14.922Z,6
2023-06-06T09:38:15.792Z,5.699999809
2023-06-06T09:39:16.740Z,6.300000191
2023-06-06T09:40:17.786Z,5.5
2023-06-06T09:41:21.013Z,6.099999905
2023-06-06T09:42:20.437Z,6.199999809
2023-06-06T09:43:21.942Z,6.099999905
2023-06-06T09:44:22.862Z,6.699999809
2023-06-06T09:45:23.945Z,6.099999905
2023-06-06T09:46:25.560Z,6.199999809
2023-06-06T09:47:27.598Z,6.5
2023-06-06T09:48:28.550Z,6.400000095
2023-06-06T09:49:29.392Z,6.599999905
2023-06-06T09:50:30.480Z,5.5
2023-06-06T09:52:03.031Z,5.599999905
2023-06-06T09:53:04.986Z,6.800000191
2023-06-06T09:54:06.824Z,6.599999905
2023-06-06T09:55:07.753Z,6.5
2023-06-06T09:56:08.966Z,7.099999905
2023-06-06T09:57:09.912Z,8
2023-06-06T09:58:10.836Z,7.300000191
2023-06-06T09:59:11.789Z,7.099999905
2023-06-06T10:00:12.630Z,6
2023-06-06T10:01:14.098Z,7.599999905
2023-06-06T10:02:15.069Z,6.599999905
2023-06-06T10:03:17.154Z,6.300000191
2023-06-06T10:04:18.060Z,6.699999809
2023-06-06T10:05:19.013Z,7.099999905
2023-06-06T10:06:20.360Z,6.400000095
2023-06-06T10:07:21.344Z,6
2023-06-06T10:08:22.273Z,6.099999905
2023-06-06T10:09:23.511Z,6.199999809
2023-06-06T10:10:24.241Z,6.900000095
2023-06-06T10:11:25.025Z,6.099999905
2023-06-06T10:12:26.898Z,6.800000191
2023-06-06T10:13:28.436Z,5.599999905
2023-06-06T10:14:29.467Z,6.199999809
2023-06-06T10:15:30.552Z,5.199999809
2023-06-06T10:16:32.386Z,5.199999809
2023-06-06T10:18:04.131Z,5.800000191
2023-06-06T10:19:05.038Z,5.5
2023-06-06T10:20:06.040Z,5.5
2023-06-06T10:21:06.929Z,6
2023-06-06T10:22:08.309Z,4.699999809
2023-06-06T10:23:10.013Z,5.199999809
2023-06-06T10:24:11.169Z,5.599999905
2023-06-06T10:25:12.085Z,4.599999905
2023-06-06T10:26:13.101Z,5
2023-06-06T10:27:13.927Z,5.099999905
2023-06-06T10:28:14.765Z,5.199999809
2023-06-06T10:29:16.494Z,5.099999905
2023-06-06T10:30:17.587Z,5.400000095
2023-06-06T10:31:18.520Z,5.400000095
2023-06-06T10:32:20.366Z,4.5
2023-06-06T10:33:21.882Z,5.199999809
2023-06-06T10:34:22.810Z,4.699999809
2023-06-06T10:35:23.751Z,5.099999905
2023-06-06T10:36:24.687Z,5.199999809
2023-06-06T10:37:25.734Z,4.699999809
2023-06-06T10:38:26.550Z,4.900000095
2023-06-06T10:39:28.387Z,5
2023-06-06T10:40:29.483Z,7.599999905
2023-06-06T10:41:30.478Z,5.099999905
2023-06-06T10:43:02.856Z,5.300000191
2023-06-06T10:44:03.914Z,5.400000095
2023-06-06T10:45:04.770Z,6
2023-06-06T10:46:05.874Z,5.099999905
2023-06-06T10:47:06.884Z,6.5
2023-06-06T10:48:08.885Z,5.199999809
2023-06-06T10:49:09.752Z,5.800000191
2023-06-06T10:50:10.839Z,6.099999905
2023-06-06T10:51:13.174Z,4.800000191
2023-06-06T10:52:14.315Z,5
2023-06-06T10:53:15.903Z,5.199999809
2023-06-06T10:54:16.755Z,5
2023-06-06T10:55:17.711Z,5.800000191
2023-06-06T10:56:18.939Z,5.599999905
2023-06-06T10:57:19.937Z,5.800000191
2023-06-06T10:58:20.975Z,5.400000095
2023-06-06T10:59:21.939Z,4.900000095
2023-06-06T11:00:23.302Z,4.199999809
2023-06-06T11:01:25.024Z,4.300000191
2023-06-06T11:02:26.599Z,4.099999905
2023-06-06T11:03:28.514Z,4.099999905
2023-06-06T11:04:29.529Z,4.5
2023-06-06T11:05:30.479Z,5
2023-06-06T11:07:02.354Z,4.800000191
2023-06-06T11:08:03.239Z,4.900000095
2023-06-06T11:09:04.224Z,4.599999905
2023-06-06T11:10:04.983Z,4.699999809
2023-06-06T11:11:06.760Z,4.900000095
2023-06-06T11:12:07.254Z,4.400000095
2023-06-06T11:13:08.155Z,4.199999809
2023-06-06T11:14:09.952Z,4.800000191
2023-06-06T11:15:10.845Z,3.900000095
2023-06-06T11:16:11.935Z,4.199999809
2023-06-06T11:17:13.834Z,4.5
2023-06-06T11:18:15.507Z,4.599999905
2023-06-06T11:19:17.399Z,4.400000095
2023-06-06T11:20:18.364Z,4.800000191
2023-06-06T11:21:19.352Z,4.400000095
2023-06-06T11:22:20.379Z,3.799999952
2023-06-06T11:23:22.012Z,5.699999809
2023-06-06T11:24:23.148Z,4
2023-06-06T11:25:23.812Z,4.5
2023-06-06T11:26:25.469Z,4.599999905
2023-06-06T11:27:26.481Z,4.400000095
2023-06-06T11:28:27.375Z,3.900000095
2023-06-06T11:29:28.307Z,4.599999905
2023-06-06T11:30:29.149Z,4.300000191
2023-06-06T11:31:30.079Z,4.199999809
2023-06-06T11:33:02.679Z,3.599999905
2023-06-06T11:34:04.480Z,4
2023-06-06T11:35:05.597Z,3.900000095
2023-06-06T11:36:06.633Z,4.900000095
2023-06-06T11:37:07.505Z,3.900000095
2023-06-06T11:38:09.455Z,4.199999809
2023-06-06T11:39:10.407Z,4.400000095
2023-06-06T11:40:11.508Z,3.900000095
2023-06-06T11:41:12.709Z,3.900000095
2023-06-06T11:42:13.780Z,4.400000095
2023-06-06T11:43:14.925Z,4.300000191
2023-06-06T11:44:16.522Z,4.599999905
2023-06-06T11:45:17.531Z,4.5
2023-06-06T11:46:18.443Z,3.900000095
2023-06-06T11:47:19.270Z,4
2023-06-06T11:48:21.076Z,4.699999809
2023-06-06T11:49:21.889Z,5